Time;durP1;ratioP1;P1;durP2;ratioP2;P2;SDS_P1;SDS_P2;PMS_P1;PMS_P2;Temp;Humidity;BMP_temperature;BMP_pressure;BME280_temperature;BME280_humidity;BME280_pressure;Samples;Min_cycle;Max_cycle;Signal;HPM_P1;HPM_P2
2023/03/10 00:00:33;;;;;;;6.43;3.10;;;8.00;99.90;;;;;;5053968;28;20959;-75
2023/03/10 00:03:06;;;;;;;10.67;3.07;;;8.00;99.90;;;;;;5054220;28;20166;-75
2023/03/10 00:05:33;;;;;;;8.77;3.40;;;8.00;99.90;;;;;;5036453;28;20479;-75
2023/03/10 00:08:03;;;;;;;8.00;3.37;;;8.00;99.90;;;;;;5035968;28;20430;-75
2023/03/10 00:10:32;;;;;;;6.30;3.10;;;8.00;99.90;;;;;;5035999;28;20436;-75
2023/03/10 00:12:58;;;;;;;5.47;2.53;;;8.00;99.90;;;;;;5019207;28;20511;-74
2023/03/10 00:15:23;;;;;;;7.30;2.97;;;8.00;99.90;;;;;;5035771;28;20500;-75
2023/03/10 00:17:54;;;;;;;6.50;2.40;;;8.00;99.90;;;;;;5035939;28;20421;-75
2023/03/10 00:20:21;;;;;;;4.33;2.60;;;8.00;99.90;;;;;;5035267;28;20428;-75
2023/03/10 00:22:48;;;;;;;5.97;2.90;;;8.00;99.90;;;;;;5035782;28;20450;-76
2023/03/10 00:25:14;;;;;;;5.60;2.63;;;8.10;99.90;;;;;;5035772;28;20457;-76
2023/03/10 00:27:45;;;;;;;4.93;2.60;;;8.10;99.90;;;;;;5053419;28;20411;-75
2023/03/10 00:30:11;;;;;;;5.50;2.70;;;8.10;99.90;;;;;;5019551;28;20424;-75
2023/03/10 00:32:37;;;;;;;6.47;2.40;;;8.10;99.90;;;;;;5002640;28;20520;-75
2023/03/10 00:35:08;;;;;;;5.17;3.03;;;8.10;99.90;;;;;;5035560;28;21029;-75
2023/03/10 00:37:38;;;;;;;4.40;2.93;;;8.10;99.90;;;;;;5019391;28;20489;-75
2023/03/10 00:40:13;;;;;;;3.77;2.13;;;8.10;99.90;;;;;;5051856;28;20414;-75
2023/03/10 00:42:43;;;;;;;5.60;1.90;;;8.10;99.90;;;;;;5019860;28;20469;-75
2023/03/10 00:45:13;;;;;;;6.33;2.63;;;8.10;99.90;;;;;;5018528;28;20511;-75
2023/03/10 00:47:41;;;;;;;4.30;2.20;;;8.10;99.90;;;;;;5019414;28;20786;-75
2023/03/10 00:50:10;;;;;;;8.00;2.00;;;8.20;99.90;;;;;;5018851;28;20838;-75
2023/03/10 00:52:41;;;;;;;3.30;2.00;;;8.20;99.90;;;;;;5035279;28;20468;-75
2023/03/10 00:55:07;;;;;;;4.10;2.30;;;8.20;99.90;;;;;;5014309;28;20469;-75
2023/03/10 00:57:37;;;;;;;4.10;1.87;;;8.20;99.90;;;;;;4999177;28;20417;-75
2023/03/10 01:00:06;;;;;;;5.20;2.10;;;8.20;99.90;;;;;;5047728;28;20775;-75
2023/03/10 01:02:32;;;;;;;2.97;1.87;;;8.30;99.90;;;;;;5018508;28;20442;-75
2023/03/10 01:05:01;;;;;;;2.73;1.87;;;8.30;99.90;;;;;;5035017;28;20421;-75
2023/03/10 01:07:29;;;;;;;2.03;1.53;;;8.30;99.90;;;;;;5018930;28;20459;-75
2023/03/10 01:10:00;;;;;;;2.63;1.67;;;8.30;99.90;;;;;;5034781;28;20457;-75
2023/03/10 01:12:33;;;;;;;3.63;1.60;;;8.30;99.90;;;;;;5018672;28;20487;-75
2023/03/10 01:14:59;;;;;;;2.97;1.37;;;8.30;99.90;;;;;;5034916;28;20464;-74
2023/03/10 01:17:25;;;;;;;1.70;1.40;;;8.40;99.90;;;;;;5031376;28;20489;-75
2023/03/10 01:19:54;;;;;;;1.73;1.03;;;8.40;99.90;;;;;;5067945;28;20446;-75
2023/03/10 01:22:22;;;;;;;1.47;1.10;;;8.40;99.90;;;;;;5034484;28;20430;-74
2023/03/10 01:24:48;;;;;;;1.90;1.37;;;8.40;99.90;;;;;;5034796;28;20403;-75
2023/03/10 01:27:17;;;;;;;1.53;1.20;;;8.40;99.90;;;;;;5034771;28;20445;-75
2023/03/10 01:29:45;;;;;;;1.80;1.10;;;8.50;99.90;;;;;;5017667;28;20454;-75
2023/03/10 01:32:13;;;;;;;2.70;1.07;;;8.40;99.90;;;;;;5034530;28;20459;-75
2023/03/10 01:34:41;;;;;;;3.63;1.20;;;8.50;99.90;;;;;;5018123;28;20444;-75
2023/03/10 01:37:12;;;;;;;3.87;1.63;;;8.40;99.90;;;;;;5018219;28;20434;-75
2023/03/10 01:39:40;;;;;;;2.63;1.30;;;8.50;99.90;;;;;;5018244;28;20453;-75
2023/03/10 01:42:09;;;;;;;3.27;1.40;;;8.50;99.90;;;;;;5034244;28;20410;-75
2023/03/10 01:44:35;;;;;;;1.90;1.30;;;8.50;99.90;;;;;;5017766;28;20401;-75
2023/03/10 01:47:01;;;;;;;1.90;1.20;;;8.50;99.90;;;;;;5034571;28;20960;-75
2023/03/10 01:49:38;;;;;;;2.67;1.70;;;8.50;99.90;;;;;;5018061;28;20442;-75
2023/03/10 01:52:12;;;;;;;2.33;1.30;;;8.50;99.90;;;;;;5018118;28;20425;-75
2023/03/10 01:54:48;;;;;;;1.97;1.10;;;8.50;99.90;;;;;;5034598;28;20425;-75
2023/03/10 01:57:22;;;;;;;2.60;1.33;;;8.50;99.90;;;;;;5031209;28;20434;-75
2023/03/10 01:59:53;;;;;;;1.73;1.30;;;8.50;99.90;;;;;;5017457;28;20839;-75
2023/03/10 02:02:22;;;;;;;2.00;1.40;;;8.50;99.90;;;;;;5018106;28;20449;-75
2023/03/10 02:04:51;;;;;;;2.77;1.43;;;8.50;99.90;;;;;;5018144;28;20469;-75
2023/03/10 02:07:25;;;;;;;1.23;1.00;;;8.50;99.90;;;;;;5034304;28;20498;-75
2023/03/10 02:09:52;;;;;;;2.10;1.50;;;8.50;99.90;;;;;;5017464;28;20827;-75
2023/03/10 02:12:19;;;;;;;2.60;1.30;;;8.50;99.90;;;;;;5014638;28;20435;-75
2023/03/10 02:14:50;;;;;;;2.00;1.03;;;8.50;99.90;;;;;;5031035;28;20503;-75
2023/03/10 02:17:20;;;;;;;1.80;1.20;;;8.50;99.90;;;;;;5014648;28;20729;-75
2023/03/10 02:19:57;;;;;;;1.77;1.30;;;8.50;99.90;;;;;;5025840;28;20439;-75
2023/03/10 02:22:23;;;;;;;3.50;1.30;;;8.50;99.90;;;;;;5005454;28;20442;-75
2023/03/10 02:24:49;;;;;;;1.20;1.10;;;8.50;99.90;;;;;;5031454;28;20442;-75
2023/03/10 02:27:23;;;;;;;1.97;1.57;;;8.50;99.90;;;;;;5001382;28;20445;-75
2023/03/10 02:30:07;;;;;;;3.27;1.23;;;8.50;99.90;;;;;;5034079;28;20815;-75
2023/03/10 02:32:39;;;;;;;2.60;1.30;;;8.50;99.90;;;;;;5017557;28;20450;-75
2023/03/10 02:35:06;;;;;;;2.63;1.33;;;8.50;99.90;;;;;;5033838;28;21049;-75
2023/03/10 02:37:39;;;;;;;1.30;1.20;;;8.50;99.90;;;;;;5034456;28;20390;-75
2023/03/10 02:40:47;;;;;;;2.10;1.67;;;8.50;99.90;;;;;;5033913;28;20441;-75
2023/03/10 02:43:22;;;;;;;2.07;1.10;;;8.50;99.90;;;;;;5017467;28;20437;-74
2023/03/10 02:45:58;;;;;;;2.53;1.37;;;8.50;99.90;;;;;;5037645;28;20448;-74
2023/03/10 02:48:35;;;;;;;1.77;1.43;;;8.50;99.90;;;;;;5037524;28;20442;-75
2023/03/10 02:51:09;;;;;;;1.87;1.50;;;8.60;99.90;;;;;;5021311;28;20456;-74
2023/03/10 02:53:35;;;;;;;4.53;1.40;;;8.60;99.90;;;;;;5021026;28;20496;-74
2023/03/10 02:56:04;;;;;;;2.10;1.40;;;8.60;99.90;;;;;;5017347;28;20487;-74
2023/03/10 02:58:34;;;;;;;2.00;1.37;;;8.60;99.90;;;;;;5020590;28;20453;-74
2023/03/10 03:01:03;;;;;;;3.13;1.40;;;8.60;99.90;;;;;;5036379;28;20990;-76
2023/03/10 03:03:32;;;;;;;2.73;1.57;;;8.60;99.90;;;;;;5036979;28;20415;-76
2023/03/10 03:06:03;;;;;;;1.60;1.50;;;8.60;99.90;;;;;;5037709;28;20433;-76
2023/03/10 03:08:37;;;;;;;2.50;1.30;;;8.60;99.90;;;;;;5020641;28;20453;-76
2023/03/10 03:11:10;;;;;;;3.60;1.60;;;8.60;99.90;;;;;;5037435;28;20460;-76
2023/03/10 03:13:41;;;;;;;1.53;1.33;;;8.60;99.90;;;;;;5020587;28;20440;-76
2023/03/10 03:16:09;;;;;;;2.50;1.73;;;8.60;99.90;;;;;;5037314;28;20438;-76
2023/03/10 03:18:45;;;;;;;1.90;1.60;;;8.60;99.90;;;;;;5020749;28;20823;-75
2023/03/10 03:21:17;;;;;;;4.60;1.97;;;8.60;99.90;;;;;;5054583;28;20465;-76
2023/03/10 03:23:45;;;;;;;1.70;1.57;;;8.60;99.90;;;;;;5019982;28;20768;-76
2023/03/10 03:26:20;;;;;;;4.53;1.90;;;8.60;99.90;;;;;;5020260;28;20457;-76
2023/03/10 03:28:51;;;;;;;3.20;1.20;;;8.60;99.90;;;;;;5036343;28;20449;-76
2023/03/10 03:31:22;;;;;;;2.30;1.53;;;8.60;99.90;;;;;;5049956;28;20418;-76
2023/03/10 03:33:54;;;;;;;2.10;1.30;;;8.60;99.90;;;;;;5004322;28;20429;-76
2023/03/10 03:36:20;;;;;;;3.80;2.47;;;8.60;99.90;;;;;;5003867;28;20454;-76
2023/03/10 03:38:48;;;;;;;2.37;1.70;;;8.60;99.90;;;;;;5004449;28;20799;-76
2023/03/10 03:41:19;;;;;;;2.23;1.20;;;8.60;99.90;;;;;;5020334;28;20436;-76
2023/03/10 03:43:50;;;;;;;1.73;1.60;;;8.60;99.90;;;;;;5019914;28;20464;-75
2023/03/10 03:46:16;;;;;;;1.93;1.40;;;8.60;99.90;;;;;;5020120;28;20985;-75
2023/03/10 03:48:42;;;;;;;2.63;1.53;;;8.60;99.90;;;;;;5036180;28;20503;-75
2023/03/10 03:51:12;;;;;;;1.97;1.30;;;8.60;99.90;;;;;;5019845;28;20817;-76
2023/03/10 03:53:43;;;;;;;2.30;1.40;;;8.60;99.90;;;;;;5035249;28;20431;-76
2023/03/10 03:56:11;;;;;;;3.57;2.10;;;8.60;99.90;;;;;;5019403;28;20541;-75
2023/03/10 03:58:39;;;;;;;2.60;1.30;;;8.70;99.90;;;;;;5020060;28;20498;-76
2023/03/10 04:01:05;;;;;;;2.23;1.53;;;8.60;99.90;;;;;;5035964;28;20779;-76
2023/03/10 04:03:38;;;;;;;1.40;1.30;;;8.60;99.90;;;;;;5036249;28;20458;-76
2023/03/10 04:06:07;;;;;;;1.57;1.30;;;8.60;99.90;;;;;;5019485;28;20479;-75
2023/03/10 04:08:35;;;;;;;2.00;1.10;;;8.60;99.90;;;;;;5019656;28;20465;-76
2023/03/10 04:11:02;;;;;;;2.17;1.20;;;8.60;99.90;;;;;;5036029;28;20402;-75
2023/03/10 04:13:32;;;;;;;4.00;1.73;;;8.60;99.90;;;;;;5035751;28;20433;-75
2023/03/10 04:15:59;;;;;;;2.57;1.60;;;8.70;99.90;;;;;;5019516;28;20507;-75
2023/03/10 04:18:33;;;;;;;2.27;1.30;;;8.70;99.90;;;;;;5053385;28;20528;-75
2023/03/10 04:21:02;;;;;;;2.63;1.33;;;8.70;99.90;;;;;;5019251;28;20454;-75
2023/03/10 04:23:29;;;;;;;2.27;1.33;;;8.70;99.90;;;;;;5035162;28;20452;-75
2023/03/10 04:25:58;;;;;;;2.60;1.30;;;8.70;99.90;;;;;;5035720;28;20436;-75
2023/03/10 04:28:27;;;;;;;3.07;1.53;;;8.70;99.90;;;;;;5035566;28;20973;-76
2023/03/10 04:30:56;;;;;;;2.80;1.30;;;8.70;99.90;;;;;;5019428;28;20428;-76
2023/03/10 04:33:25;;;;;;;2.03;1.40;;;8.70;99.90;;;;;;5003099;28;20464;-75
2023/03/10 04:35:52;;;;;;;1.77;1.30;;;8.70;99.90;;;;;;5018679;28;20462;-75
2023/03/10 04:38:22;;;;;;;2.30;1.33;;;8.70;99.90;;;;;;5035576;28;20992;-75
2023/03/10 04:40:57;;;;;;;2.70;1.40;;;8.70;99.90;;;;;;5019122;28;20442;-76
2023/03/10 04:43:33;;;;;;;2.93;1.37;;;8.70;99.90;;;;;;5019708;28;20915;-76
2023/03/10 04:46:00;;;;;;;3.37;1.40;;;8.70;99.90;;;;;;5019031;28;20532;-76
2023/03/10 04:48:29;;;;;;;1.83;1.53;;;8.70;99.90;;;;;;5018965;28;20978;-76
2023/03/10 04:51:03;;;;;;;1.60;1.50;;;8.70;99.90;;;;;;5035227;28;20480;-76
2023/03/10 04:53:36;;;;;;;2.13;1.50;;;8.70;99.90;;;;;;5018830;28;20437;-76
2023/03/10 04:56:07;;;;;;;1.83;1.40;;;8.70;99.90;;;;;;5015417;28;20460;-76
2023/03/10 04:58:37;;;;;;;4.27;1.80;;;8.70;99.90;;;;;;5018432;28;20458;-76
2023/03/10 05:01:13;;;;;;;1.43;1.20;;;8.70;99.90;;;;;;5018977;28;20430;-75
2023/03/10 05:03:45;;;;;;;1.80;1.40;;;8.70;99.90;;;;;;5052360;28;20446;-75
2023/03/10 05:06:19;;;;;;;2.50;1.53;;;8.70;99.90;;;;;;5018355;28;20426;-76
2023/03/10 05:08:51;;;;;;;1.53;1.20;;;8.70;99.90;;;;;;5018515;28;20457;-75
2023/03/10 05:11:22;;;;;;;1.50;1.40;;;8.70;99.90;;;;;;5035961;28;20517;-72
2023/03/10 05:13:53;;;;;;;1.77;1.23;;;8.70;99.90;;;;;;5018864;28;21101;-75
2023/03/10 05:16:20;;;;;;;2.10;1.40;;;8.70;99.90;;;;;;5034503;28;20505;-75
2023/03/10 05:18:51;;;;;;;2.43;1.27;;;8.70;99.90;;;;;;5018424;28;20870;-75
2023/03/10 05:21:23;;;;;;;2.37;1.30;;;8.70;99.90;;;;;;5033863;28;20402;-76
2023/03/10 05:23:52;;;;;;;3.50;1.60;;;8.70;99.90;;;;;;5034634;28;20423;-76
2023/03/10 05:26:19;;;;;;;2.30;1.27;;;8.70;99.90;;;;;;5034536;28;20444;-76
2023/03/10 05:28:49;;;;;;;3.07;1.23;;;8.70;99.90;;;;;;5018130;28;20590;-75
2023/03/10 05:31:24;;;;;;;2.43;1.10;;;8.70;99.90;;;;;;5034449;28;20422;-73
2023/03/10 05:33:53;;;;;;;3.80;1.50;;;8.70;99.90;;;;;;5034621;28;20436;-75
2023/03/10 05:36:21;;;;;;;2.40;1.50;;;8.70;99.90;;;;;;5018249;28;20462;-75
2023/03/10 05:38:51;;;;;;;3.20;1.70;;;8.70;99.90;;;;;;5019075;28;20902;-74
2023/03/10 05:41:20;;;;;;;2.23;1.30;;;8.70;99.90;;;;;;5017996;28;20836;-75
2023/03/10 05:43:49;;;;;;;1.60;1.10;;;8.70;99.90;;;;;;4998772;28;20776;-74
2023/03/10 05:46:16;;;;;;;1.87;1.30;;;8.70;99.90;;;;;;5014707;28;20545;-74
2023/03/10 05:48:51;;;;;;;2.73;1.10;;;8.70;99.90;;;;;;5031556;28;20515;-75
2023/03/10 05:51:17;;;;;;;6.50;1.47;;;8.70;99.90;;;;;;5018163;28;20502;-74
2023/03/10 05:53:47;;;;;;;4.40;1.60;;;8.70;99.90;;;;;;5001848;28;20959;-75
2023/03/10 05:56:19;;;;;;;3.40;1.70;;;8.70;99.90;;;;;;5032777;28;20457;-75
2023/03/10 05:58:52;;;;;;;2.10;1.50;;;8.70;99.90;;;;;;5034459;28;20454;-75
2023/03/10 06:01:24;;;;;;;2.60;1.30;;;8.70;99.90;;;;;;5022971;28;20762;-74
2023/03/10 06:03:50;;;;;;;1.97;1.43;;;8.70;99.90;;;;;;5052348;28;20401;-74
2023/03/10 06:06:16;;;;;;;3.37;1.40;;;8.70;99.90;;;;;;5001458;28;20513;-75
2023/03/10 06:08:42;;;;;;;1.80;1.20;;;8.70;99.90;;;;;;5017521;28;20966;-74
2023/03/10 06:11:09;;;;;;;4.20;1.67;;;8.70;99.90;;;;;;5032579;28;20445;-76
2023/03/10 06:13:37;;;;;;;7.77;1.43;;;8.70;99.90;;;;;;5034254;28;20433;-75
2023/03/10 06:16:05;;;;;;;2.40;1.53;;;8.70;99.90;;;;;;5018748;28;20553;-75
2023/03/10 06:18:31;;;;;;;3.60;1.70;;;8.80;99.90;;;;;;5021996;28;20426;-75
2023/03/10 06:21:08;;;;;;;1.73;1.50;;;8.70;99.90;;;;;;5037634;28;20434;-76
2023/03/10 06:23:34;;;;;;;6.10;1.70;;;8.80;99.90;;;;;;5048791;28;20437;-75
2023/03/10 06:26:01;;;;;;;2.93;1.70;;;8.80;99.90;;;;;;5038487;28;20455;-75
2023/03/10 06:28:35;;;;;;;4.97;2.00;;;8.80;99.90;;;;;;5038044;28;20474;-77
2023/03/10 06:31:05;;;;;;;2.90;1.67;;;8.80;99.90;;;;;;5024439;28;20418;-76
2023/03/10 06:33:31;;;;;;;4.17;1.47;;;8.80;99.90;;;;;;5021454;28;20437;-76
2023/03/10 06:35:57;;;;;;;4.03;2.00;;;8.80;99.90;;;;;;5016449;28;20457;-77
2023/03/10 06:38:26;;;;;;;3.80;1.73;;;8.80;99.90;;;;;;5038223;28;20769;-76
2023/03/10 06:40:55;;;;;;;2.20;1.60;;;8.80;99.90;;;;;;5020878;28;20457;-75
2023/03/10 06:43:23;;;;;;;2.97;2.00;;;8.80;99.90;;;;;;5037953;28;20414;-76
2023/03/10 06:45:50;;;;;;;4.10;1.80;;;8.80;99.90;;;;;;5034455;28;21010;-75
2023/03/10 06:48:18;;;;;;;5.93;1.73;;;8.80;99.90;;;;;;5017962;28;20445;-76
2023/03/10 06:50:50;;;;;;;3.70;1.63;;;8.80;99.90;;;;;;5020089;28;20434;-76
2023/03/10 06:56:11;;;;;;;3.53;1.93;;;8.80;99.90;;;;;;5004467;28;20602;-69
2023/03/10 06:58:38;;;;;;;4.47;2.43;;;8.80;99.90;;;;;;4994839;28;20503;-69
2023/03/10 07:01:06;;;;;;;5.23;2.00;;;8.80;99.90;;;;;;5010394;28;20432;-71
2023/03/10 07:03:35;;;;;;;4.07;1.83;;;8.80;99.90;;;;;;5011121;28;20547;-72
2023/03/10 07:06:01;;;;;;;4.37;1.53;;;8.80;99.90;;;;;;4978879;28;20457;-70
2023/03/10 07:08:28;;;;;;;4.10;1.93;;;8.80;99.90;;;;;;4995167;28;20491;-69
2023/03/10 07:10:57;;;;;;;7.73;1.90;;;8.80;99.90;;;;;;4995646;28;20497;-69
2023/03/10 07:13:28;;;;;;;4.43;1.70;;;8.80;99.90;;;;;;4994975;28;20894;-69
2023/03/10 07:15:56;;;;;;;4.77;1.83;;;8.80;99.90;;;;;;4994538;28;20532;-69
2023/03/10 07:18:26;;;;;;;5.37;1.90;;;8.90;99.90;;;;;;4984249;28;20465;-69
2023/03/10 07:20:53;;;;;;;4.13;1.87;;;8.90;99.90;;;;;;4974916;28;20484;-69
2023/03/10 07:23:19;;;;;;;4.17;1.93;;;8.90;99.90;;;;;;4986892;28;20440;-69
2023/03/10 07:25:55;;;;;;;6.07;2.10;;;8.90;99.90;;;;;;4977578;28;20460;-69
2023/03/10 07:28:22;;;;;;;7.47;2.20;;;8.90;99.90;;;;;;4977255;28;20451;-69
2023/03/10 07:30:52;;;;;;;3.53;1.83;;;8.90;99.90;;;;;;4993075;28;20986;-69
2023/03/10 07:33:18;;;;;;;3.40;1.93;;;8.90;99.90;;;;;;4994792;28;20460;-69
2023/03/10 07:35:44;;;;;;;5.33;2.00;;;8.90;99.90;;;;;;4993856;28;20459;-69
2023/03/10 07:38:11;;;;;;;3.93;2.40;;;8.90;99.90;;;;;;4977707;28;20444;-69
2023/03/10 07:40:41;;;;;;;4.63;2.30;;;8.90;99.90;;;;;;5009574;28;20389;-69
2023/03/10 07:43:07;;;;;;;5.70;2.33;;;8.90;99.90;;;;;;4974165;28;20445;-69
2023/03/10 07:45:36;;;;;;;4.10;2.13;;;8.90;99.90;;;;;;4975806;28;20421;-69
2023/03/10 07:48:02;;;;;;;8.80;2.50;;;8.90;99.90;;;;;;4985412;28;20461;-68
2023/03/10 07:50:31;;;;;;;5.17;2.17;;;8.90;99.90;;;;;;4992543;28;20468;-68
2023/03/10 07:52:56;;;;;;;5.80;2.10;;;8.90;99.90;;;;;;4991880;28;21208;-69
2023/03/10 07:55:25;;;;;;;4.50;2.13;;;8.90;99.90;;;;;;5010585;28;20548;-70
2023/03/10 07:57:51;;;;;;;2.63;1.80;;;9.00;99.90;;;;;;4978032;28;21016;-69
2023/03/10 08:00:17;;;;;;;3.80;2.03;;;9.00;99.90;;;;;;4991495;28;20429;-70
2023/03/10 08:02:44;;;;;;;2.90;2.10;;;9.00;99.90;;;;;;4992746;28;20440;-70
2023/03/10 08:05:13;;;;;;;6.87;1.63;;;9.00;99.90;;;;;;5005859;28;20444;-70
2023/03/10 08:07:50;;;;;;;4.60;2.50;;;9.00;99.90;;;;;;4993331;28;20417;-70
2023/03/10 08:10:19;;;;;;;5.20;2.43;;;9.00;99.90;;;;;;4990097;28;20449;-70
2023/03/10 08:12:49;;;;;;;4.23;2.07;;;9.00;99.90;;;;;;4994816;28;20772;-70
2023/03/10 08:15:20;;;;;;;5.40;2.30;;;9.00;99.90;;;;;;4993278;28;21346;-70
2023/03/10 08:17:52;;;;;;;6.83;2.40;;;9.00;99.90;;;;;;4993068;28;20471;-70
2023/03/10 08:20:18;;;;;;;6.90;2.83;;;9.00;99.90;;;;;;4986325;28;20427;-69
2023/03/10 08:22:46;;;;;;;5.00;2.50;;;9.00;99.90;;;;;;5005105;28;20882;-70
2023/03/10 08:25:14;;;;;;;4.27;1.93;;;9.00;99.90;;;;;;4993187;28;20448;-70
2023/03/10 08:27:41;;;;;;;4.77;2.03;;;9.00;99.90;;;;;;4994078;28;20429;-70
2023/03/10 08:30:10;;;;;;;5.10;2.00;;;9.00;99.90;;;;;;5009121;28;20991;-74
2023/03/10 08:35:52;;;;;;;7.33;2.57;;;9.00;99.90;;;;;;4981257;28;20485;-70
2023/03/10 08:38:18;;;;;;;5.17;2.30;;;9.10;99.90;;;;;;4993415;28;20440;-70
2023/03/10 08:40:44;;;;;;;7.33;2.60;;;9.00;99.90;;;;;;5008592;28;20437;-70
2023/03/10 08:43:13;;;;;;;3.93;2.13;;;9.00;99.90;;;;;;4977089;28;20791;-70
2023/03/10 08:45:41;;;;;;;4.40;2.83;;;9.10;99.90;;;;;;4993276;28;20445;-69
2023/03/10 08:48:10;;;;;;;4.53;2.17;;;9.10;99.90;;;;;;4975306;28;20938;-71
2023/03/10 08:50:38;;;;;;;3.30;1.90;;;9.10;99.90;;;;;;4990177;28;20402;-71
2023/03/10 08:53:05;;;;;;;5.73;2.57;;;9.10;99.90;;;;;;4975049;28;20477;-72
2023/03/10 08:55:33;;;;;;;5.23;2.00;;;9.10;99.90;;;;;;4974845;28;20468;-73
2023/03/10 08:57:59;;;;;;;6.60;2.43;;;9.10;99.90;;;;;;4990598;28;20993;-72
2023/03/10 09:00:26;;;;;;;6.87;2.40;;;9.10;99.90;;;;;;5009506;28;20466;-72
2023/03/10 09:02:54;;;;;;;6.13;2.33;;;9.10;99.90;;;;;;4993091;28;20825;-71
2023/03/10 09:05:22;;;;;;;6.17;1.87;;;9.10;99.90;;;;;;4992707;28;21005;-71
2023/03/10 09:07:48;;;;;;;3.40;1.80;;;9.10;99.90;;;;;;5009057;28;20810;-72
2023/03/10 09:10:17;;;;;;;5.30;1.93;;;9.10;99.90;;;;;;4993909;28;20437;-72
2023/03/10 09:12:50;;;;;;;6.10;2.17;;;9.20;99.90;;;;;;5002560;28;20456;-70
2023/03/10 09:15:17;;;;;;;11.80;2.17;;;9.20;99.90;;;;;;4973594;28;20955;-70
2023/03/10 09:17:43;;;;;;;9.17;2.70;;;9.20;99.90;;;;;;4992150;28;20458;-69
2023/03/10 09:20:13;;;;;;;3.03;1.80;;;9.20;99.90;;;;;;5009333;28;20410;-70
2023/03/10 09:22:39;;;;;;;5.37;2.53;;;9.20;99.90;;;;;;4975395;28;20482;-68
2023/03/10 09:25:05;;;;;;;6.10;2.13;;;9.20;99.90;;;;;;4988364;28;21093;-68
2023/03/10 09:27:31;;;;;;;6.00;2.00;;;9.30;99.90;;;;;;5006313;28;20457;-68
2023/03/10 09:29:57;;;;;;;6.27;2.60;;;9.30;99.90;;;;;;4989023;28;20834;-68
2023/03/10 09:32:26;;;;;;;6.40;2.10;;;9.30;99.90;;;;;;4993537;28;20410;-68
2023/03/10 09:34:52;;;;;;;6.17;2.80;;;9.30;99.90;;;;;;4991637;28;20443;-68
2023/03/10 09:37:18;;;;;;;5.70;2.10;;;9.30;99.90;;;;;;5007606;28;20444;-69
2023/03/10 09:39:44;;;;;;;9.13;3.60;;;9.30;99.90;;;;;;4982035;28;20452;-69
2023/03/10 09:42:25;;;;;;;8.67;2.83;;;9.40;99.90;;;;;;4991937;28;20428;-68
2023/03/10 09:44:58;;;;;;;7.03;2.87;;;9.40;99.90;;;;;;5005810;28;20556;-68
2023/03/10 09:48:03;;;;;;;7.17;3.00;;;9.40;99.90;;;;;;4982287;28;20464;-68
2023/03/10 09:50:46;;;;;;;7.97;2.70;;;9.40;99.90;;;;;;4944064;28;20451;-68
2023/03/10 09:53:48;;;;;;;7.47;3.00;;;9.50;99.90;;;;;;4989599;28;20605;-68
2023/03/10 09:56:23;;;;;;;7.50;3.00;;;9.50;99.90;;;;;;4991188;28;20556;-68
2023/03/10 09:59:06;;;;;;;5.83;2.83;;;9.50;99.90;;;;;;4990861;28;20460;-68
2023/03/10 10:01:33;;;;;;;6.40;2.70;;;9.50;99.90;;;;;;4990754;28;20421;-68
2023/03/10 10:04:24;;;;;;;9.43;3.00;;;9.50;99.90;;;;;;4992428;28;20443;-68
2023/03/10 10:06:54;;;;;;;6.17;2.70;;;9.50;99.90;;;;;;4974319;28;20464;-68
2023/03/10 10:09:41;;;;;;;9.57;3.47;;;9.50;99.90;;;;;;4990014;28;20461;-68
2023/03/10 10:12:26;;;;;;;5.50;2.53;;;9.60;99.90;;;;;;4988988;28;20498;-68
2023/03/10 10:14:58;;;;;;;6.10;2.47;;;9.60;99.90;;;;;;4991584;28;20457;-68
2023/03/10 10:17:52;;;;;;;7.43;2.80;;;9.60;99.90;;;;;;4982568;28;20461;-68
2023/03/10 10:20:23;;;;;;;9.53;3.17;;;9.60;99.90;;;;;;4991475;28;20449;-68
2023/03/10 10:22:49;;;;;;;8.17;2.50;;;9.70;99.90;;;;;;4963120;28;20542;-68
2023/03/10 10:25:15;;;;;;;5.33;2.10;;;9.70;99.90;;;;;;4983179;28;20501;-69
2023/03/10 10:27:44;;;;;;;7.40;2.90;;;9.70;99.90;;;;;;4986420;28;20457;-68
2023/03/10 10:30:26;;;;;;;8.10;2.50;;;9.70;99.90;;;;;;5006120;28;20440;-69
2023/03/10 10:33:01;;;;;;;8.93;2.40;;;9.80;99.90;;;;;;4992565;28;20448;-67
2023/03/10 10:35:32;;;;;;;7.70;2.60;;;9.80;99.90;;;;;;4991390;28;20472;-68
2023/03/10 10:38:16;;;;;;;5.63;1.57;;;9.80;99.90;;;;;;5007012;28;20500;-67
2023/03/10 10:40:47;;;;;;;10.00;2.63;;;9.80;99.90;;;;;;4992849;28;20767;-67
2023/03/10 10:43:20;;;;;;;6.23;1.80;;;9.90;99.90;;;;;;4991206;28;20437;-67
2023/03/10 10:45:56;;;;;;;6.90;2.30;;;9.90;99.90;;;;;;5007318;28;20945;-68
2023/03/10 10:48:45;;;;;;;7.10;2.40;;;9.90;99.90;;;;;;4985026;28;20452;-68
2023/03/10 10:51:28;;;;;;;7.60;2.40;;;9.90;99.90;;;;;;4991156;28;20519;-69
2023/03/10 10:54:03;;;;;;;6.43;2.00;;;9.90;99.90;;;;;;4997739;28;20445;-68
2023/03/10 10:56:34;;;;;;;8.27;2.37;;;9.90;99.90;;;;;;4990803;28;20476;-69
2023/03/10 10:59:19;;;;;;;6.47;1.90;;;10.00;99.90;;;;;;4979241;28;20456;-71
2023/03/10 11:01:56;;;;;;;3.57;1.67;;;10.00;99.90;;;;;;4991289;28;20829;-71
2023/03/10 11:04:30;;;;;;;3.80;2.17;;;10.00;99.90;;;;;;4995234;28;20448;-71
2023/03/10 11:07:16;;;;;;;5.93;1.90;;;10.00;99.90;;;;;;4995062;28;20459;-71
2023/03/10 11:09:42;;;;;;;8.27;1.90;;;10.00;99.90;;;;;;4995947;28;20213;-70
2023/03/10 11:12:45;;;;;;;7.63;1.90;;;10.00;99.90;;;;;;4978626;28;20983;-70
2023/03/10 11:15:26;;;;;;;6.83;2.33;;;10.00;99.90;;;;;;5010929;28;20460;-70
2023/03/10 11:17:57;;;;;;;4.80;2.00;;;10.10;99.90;;;;;;4978459;28;20421;-70
2023/03/10 11:20:27;;;;;;;8.67;2.03;;;10.10;99.90;;;;;;5010820;28;20769;-69
2023/03/10 11:23:04;;;;;;;4.93;1.97;;;10.10;99.90;;;;;;4990782;28;20446;-70
2023/03/10 11:25:39;;;;;;;6.73;1.60;;;10.10;99.90;;;;;;5002746;28;20863;-70
2023/03/10 11:28:19;;;;;;;3.50;1.50;;;10.10;99.90;;;;;;4995049;28;20996;-69
2023/03/10 11:30:57;;;;;;;8.77;2.03;;;10.10;99.90;;;;;;4989741;28;20426;-71
2023/03/10 11:33:33;;;;;;;4.30;1.80;;;10.10;99.90;;;;;;4976416;28;20434;-68
2023/03/10 11:36:12;;;;;;;8.33;1.80;;;10.10;99.90;;;;;;4978746;28;20883;-71
2023/03/10 11:38:45;;;;;;;3.97;1.77;;;10.10;99.90;;;;;;4999661;28;20814;-71
2023/03/10 11:41:18;;;;;;;4.13;1.80;;;10.20;99.90;;;;;;5009785;28;20417;-71
2023/03/10 11:44:00;;;;;;;3.00;1.20;;;10.20;99.90;;;;;;4992283;28;20492;-71
2023/03/10 11:46:57;;;;;;;3.43;1.60;;;10.20;99.90;;;;;;5007098;28;20809;-70
2023/03/10 11:49:30;;;;;;;6.80;1.40;;;10.20;99.90;;;;;;4991844;28;20561;-72
2023/03/10 11:52:06;;;;;;;4.33;1.80;;;10.20;99.90;;;;;;4990726;28;20527;-75
2023/03/10 11:54:38;;;;;;;1.33;1.07;;;10.20;99.90;;;;;;5008929;28;20588;-70
2023/03/10 11:57:15;;;;;;;1.93;1.30;;;10.20;99.90;;;;;;5005265;28;21024;-71
2023/03/10 12:00:01;;;;;;;3.80;1.20;;;10.20;99.90;;;;;;4991884;28;20468;-71
2023/03/10 12:02:44;;;;;;;2.87;1.10;;;10.20;99.90;;;;;;4991286;28;20528;-71
2023/03/10 12:05:14;;;;;;;7.47;1.43;;;10.20;99.90;;;;;;4992089;28;20441;-71
2023/03/10 12:07:45;;;;;;;3.17;1.63;;;10.20;99.90;;;;;;4976840;28;20437;-71
2023/03/10 12:10:11;;;;;;;2.90;1.00;;;10.20;99.90;;;;;;4993698;28;20448;-71
2023/03/10 12:12:46;;;;;;;1.80;1.10;;;10.20;99.90;;;;;;5008683;28;20480;-71
2023/03/10 12:15:22;;;;;;;6.10;2.37;;;10.20;99.90;;;;;;4991885;28;20206;-71
2023/03/10 12:17:50;;;;;;;5.13;1.37;;;10.20;99.90;;;;;;4992563;28;20935;-72
2023/03/10 12:20:16;;;;;;;5.13;1.60;;;10.20;99.90;;;;;;4993652;28;20468;-72
2023/03/10 12:23:08;;;;;;;2.63;1.37;;;10.20;99.90;;;;;;5008303;28;21109;-71
2023/03/10 12:25:41;;;;;;;5.57;1.30;;;10.20;99.90;;;;;;4966847;28;20481;-71
2023/03/10 12:28:18;;;;;;;1.80;1.30;;;10.20;99.90;;;;;;4992658;28;20445;-71
2023/03/10 12:31:11;;;;;;;1.70;1.10;;;10.20;99.90;;;;;;4992684;28;20862;-71
2023/03/10 12:33:40;;;;;;;3.37;1.23;;;10.20;99.90;;;;;;4994362;28;20429;-71
2023/03/10 12:36:21;;;;;;;2.80;1.20;;;10.10;99.90;;;;;;4991530;28;20465;-71
2023/03/10 12:38:56;;;;;;;4.60;1.70;;;10.10;99.90;;;;;;4974895;28;20973;-72
2023/03/10 12:41:29;;;;;;;1.80;0.90;;;10.10;99.90;;;;;;4993233;28;20464;-71
2023/03/10 12:44:27;;;;;;;1.40;0.83;;;10.20;99.90;;;;;;4984596;28;20794;-71
2023/03/10 12:47:16;;;;;;;2.70;1.17;;;10.20;99.90;;;;;;4991866;28;20792;-73
2023/03/10 12:49:58;;;;;;;2.17;1.07;;;10.20;99.90;;;;;;4992585;28;20452;-71
2023/03/10 12:52:30;;;;;;;3.87;1.23;;;10.10;99.90;;;;;;4974915;28;20462;-71
2023/03/10 12:55:02;;;;;;;2.30;1.10;;;10.20;99.90;;;;;;5008222;28;20491;-73
2023/03/10 12:58:01;;;;;;;4.50;1.50;;;10.20;99.90;;;;;;5008221;28;20516;-70
2023/03/10 13:00:47;;;;;;;5.20;1.40;;;10.20;99.90;;;;;;5008427;28;20471;-70
2023/03/10 13:03:37;;;;;;;2.93;1.13;;;10.20;99.90;;;;;;4975265;28;20809;-74
2023/03/10 13:06:09;;;;;;;2.40;1.20;;;10.20;99.90;;;;;;5008282;28;20456;-73
2023/03/10 13:08:44;;;;;;;3.13;1.30;;;10.10;99.90;;;;;;4991689;28;20449;-72
2023/03/10 13:11:41;;;;;;;2.60;1.17;;;10.10;99.90;;;;;;4992291;28;20516;-73
2023/03/10 13:14:16;;;;;;;3.10;1.30;;;10.10;99.90;;;;;;5008184;28;20781;-74
2023/03/10 13:16:59;;;;;;;2.70;1.20;;;10.20;99.90;;;;;;4992758;28;20461;-71
2023/03/10 13:19:29;;;;;;;4.50;1.40;;;10.20;99.90;;;;;;5006848;28;20447;-71
2023/03/10 13:21:55;;;;;;;2.13;1.20;;;10.20;99.90;;;;;;4992399;28;20439;-69
2023/03/10 13:24:33;;;;;;;3.20;1.20;;;10.20;99.90;;;;;;5006923;28;20541;-72